Liberty Center, Iowa
Current Conditions -  °F | °C
As of 6:35 PM on Thursday 18 Dec 2014 (Local Time) from KI75 Reporting Station
Overcast Overcast  
Wind Chill: 25°   Ceiling: 1300
Heat Index: 29°   Visibility: 10mi
Dew Point: 26°   Wind: 5mph
Humidity: 88%   Direction: 80°E
Pressure: 30.24"   Gusts: NA
Location:  41.2°N, 93.5°W
Report Text: KI75 190035Z AUTO 08004KT 10SM OVC013 M01/M03 A3024 RMK AO2 T10141031
Loading
Personal Weather Stations






























Interactive Weather Map New forecast layout! Learn more

10-Day Weather Forecast

Advertisements
Track Severe Weather on mobile